sensor_id;sensor_type;location;lat;lon;timestamp;P1;durP1;ratioP1;P2;durP2;ratioP2
72864;SDS011;61000;48.120;11.548;2022-10-17T00:01:01;6.60;;;3.20;;
72864;SDS011;61000;48.120;11.548;2022-10-17T00:03:29;7.75;;;3.10;;
72864;SDS011;61000;48.120;11.548;2022-10-17T00:05:56;7.32;;;3.70;;
72864;SDS011;61000;48.120;11.548;2022-10-17T00:08:23;4.25;;;3.13;;
72864;SDS011;61000;48.120;11.548;2022-10-17T00:10:56;3.53;;;3.22;;
72864;SDS011;61000;48.120;11.548;2022-10-17T00:13:26;4.43;;;3.30;;
72864;SDS011;61000;48.120;11.548;2022-10-17T00:15:53;7.10;;;3.50;;
72864;SDS011;61000;48.120;11.548;2022-10-17T00:18:20;3.47;;;2.88;;
72864;SDS011;61000;48.120;11.548;2022-10-17T00:20:47;3.47;;;2.92;;
72864;SDS011;61000;48.120;11.548;2022-10-17T00:23:14;7.90;;;3.25;;
72864;SDS011;61000;48.120;11.548;2022-10-17T00:25:41;6.30;;;3.25;;
72864;SDS011;61000;48.120;11.548;2022-10-17T00:28:08;5.38;;;3.30;;
72864;SDS011;61000;48.120;11.548;2022-10-17T00:30:36;7.03;;;3.78;;
72864;SDS011;61000;48.120;11.548;2022-10-17T00:33:03;5.90;;;3.03;;
72864;SDS011;61000;48.120;11.548;2022-10-17T00:35:31;7.05;;;3.22;;
72864;SDS011;61000;48.120;11.548;2022-10-17T00:37:58;7.90;;;3.10;;
72864;SDS011;61000;48.120;11.548;2022-10-17T00:40:26;5.63;;;2.97;;
72864;SDS011;61000;48.120;11.548;2022-10-17T00:42:52;3.45;;;3.15;;
72864;SDS011;61000;48.120;11.548;2022-10-17T00:45:22;5.20;;;3.13;;
72864;SDS011;61000;48.120;11.548;2022-10-17T00:47:53;7.70;;;3.30;;
72864;SDS011;61000;48.120;11.548;2022-10-17T00:50:23;4.40;;;3.20;;
72864;SDS011;61000;48.120;11.548;2022-10-17T00:52:51;4.75;;;3.10;;
72864;SDS011;61000;48.120;11.548;2022-10-17T00:55:22;3.97;;;3.50;;
72864;SDS011;61000;48.120;11.548;2022-10-17T00:57:53;5.50;;;3.00;;
72864;SDS011;61000;48.120;11.548;2022-10-17T01:00:21;4.90;;;3.30;;
72864;SDS011;61000;48.120;11.548;2022-10-17T01:02:49;4.15;;;3.05;;
72864;SDS011;61000;48.120;11.548;2022-10-17T01:05:18;8.38;;;4.80;;
72864;SDS011;61000;48.120;11.548;2022-10-17T01:07:46;4.30;;;3.83;;
72864;SDS011;61000;48.120;11.548;2022-10-17T01:10:14;5.68;;;3.72;;
72864;SDS011;61000;48.120;11.548;2022-10-17T01:12:45;5.22;;;3.40;;
72864;SDS011;61000;48.120;11.548;2022-10-17T01:15:20;6.22;;;3.30;;
72864;SDS011;61000;48.120;11.548;2022-10-17T01:18:02;7.50;;;3.95;;
72864;SDS011;61000;48.120;11.548;2022-10-17T01:20:50;4.45;;;3.53;;
72864;SDS011;61000;48.120;11.548;2022-10-17T01:26:52;4.18;;;2.88;;
72864;SDS011;61000;48.120;11.548;2022-10-17T01:29:52;7.05;;;4.15;;
72864;SDS011;61000;48.120;11.548;2022-10-17T01:32:42;4.55;;;2.78;;
72864;SDS011;61000;48.120;11.548;2022-10-17T01:35:15;4.38;;;4.03;;
72864;SDS011;61000;48.120;11.548;2022-10-17T01:37:49;5.15;;;3.10;;
72864;SDS011;61000;48.120;11.548;2022-10-17T01:40:21;9.05;;;3.28;;
72864;SDS011;61000;48.120;11.548;2022-10-17T01:42:56;4.35;;;2.60;;
72864;SDS011;61000;48.120;11.548;2022-10-17T01:45:30;6.90;;;2.88;;
72864;SDS011;61000;48.120;11.548;2022-10-17T01:48:06;4.53;;;3.00;;
72864;SDS011;61000;48.120;11.548;2022-10-17T01:50:36;3.85;;;2.72;;
72864;SDS011;61000;48.120;11.548;2022-10-17T01:53:08;3.38;;;3.05;;
72864;SDS011;61000;48.120;11.548;2022-10-17T01:55:39;4.80;;;2.63;;
72864;SDS011;61000;48.120;11.548;2022-10-17T01:58:09;3.03;;;2.67;;
72864;SDS011;61000;48.120;11.548;2022-10-17T02:00:38;4.80;;;3.05;;
72864;SDS011;61000;48.120;11.548;2022-10-17T02:03:11;3.28;;;2.20;;
72864;SDS011;61000;48.120;11.548;2022-10-17T02:05:42;3.58;;;2.60;;
72864;SDS011;61000;48.120;11.548;2022-10-17T02:08:10;13.60;;;4.30;;
72864;SDS011;61000;48.120;11.548;2022-10-17T02:10:38;3.75;;;2.97;;
72864;SDS011;61000;48.120;11.548;2022-10-17T02:13:10;3.63;;;2.60;;
72864;SDS011;61000;48.120;11.548;2022-10-17T02:15:49;3.17;;;2.83;;
72864;SDS011;61000;48.120;11.548;2022-10-17T02:18:51;5.28;;;3.13;;
72864;SDS011;61000;48.120;11.548;2022-10-17T02:21:27;4.05;;;2.67;;
72864;SDS011;61000;48.120;11.548;2022-10-17T02:24:04;5.90;;;3.10;;
72864;SDS011;61000;48.120;11.548;2022-10-17T02:26:42;2.67;;;2.38;;
72864;SDS011;61000;48.120;11.548;2022-10-17T02:29:15;4.57;;;3.10;;
72864;SDS011;61000;48.120;11.548;2022-10-17T02:31:46;3.83;;;2.97;;
72864;SDS011;61000;48.120;11.548;2022-10-17T02:34:18;7.50;;;2.83;;
72864;SDS011;61000;48.120;11.548;2022-10-17T02:36:51;4.18;;;2.75;;
72864;SDS011;61000;48.120;11.548;2022-10-17T02:39:21;3.97;;;2.97;;
72864;SDS011;61000;48.120;11.548;2022-10-17T02:41:50;3.95;;;2.80;;
72864;SDS011;61000;48.120;11.548;2022-10-17T02:44:19;4.88;;;3.00;;
72864;SDS011;61000;48.120;11.548;2022-10-17T02:46:50;3.83;;;2.22;;
72864;SDS011;61000;48.120;11.548;2022-10-17T02:49:23;2.50;;;2.22;;
72864;SDS011;61000;48.120;11.548;2022-10-17T02:51:54;4.03;;;2.85;;
72864;SDS011;61000;48.120;11.548;2022-10-17T02:54:27;3.00;;;2.80;;
72864;SDS011;61000;48.120;11.548;2022-10-17T02:56:59;2.70;;;2.42;;
72864;SDS011;61000;48.120;11.548;2022-10-17T02:59:32;3.65;;;2.65;;
72864;SDS011;61000;48.120;11.548;2022-10-17T03:02:01;6.20;;;2.95;;
72864;SDS011;61000;48.120;11.548;2022-10-17T03:04:31;4.70;;;3.00;;
72864;SDS011;61000;48.120;11.548;2022-10-17T03:06:58;6.03;;;3.72;;
72864;SDS011;61000;48.120;11.548;2022-10-17T03:09:25;7.15;;;2.80;;
72864;SDS011;61000;48.120;11.548;2022-10-17T03:11:52;3.83;;;2.92;;
72864;SDS011;61000;48.120;11.548;2022-10-17T03:14:19;4.63;;;2.67;;
72864;SDS011;61000;48.120;11.548;2022-10-17T03:16:45;4.10;;;2.60;;
72864;SDS011;61000;48.120;11.548;2022-10-17T03:19:14;3.00;;;2.70;;
72864;SDS011;61000;48.120;11.548;2022-10-17T03:21:43;3.83;;;2.50;;
72864;SDS011;61000;48.120;11.548;2022-10-17T03:24:10;2.85;;;2.60;;
72864;SDS011;61000;48.120;11.548;2022-10-17T03:26:37;5.57;;;3.03;;
72864;SDS011;61000;48.120;11.548;2022-10-17T03:29:05;3.00;;;2.70;;
72864;SDS011;61000;48.120;11.548;2022-10-17T03:31:33;2.95;;;2.53;;
72864;SDS011;61000;48.120;11.548;2022-10-17T03:34:02;5.82;;;2.72;;
72864;SDS011;61000;48.120;11.548;2022-10-17T03:36:29;6.20;;;2.80;;
72864;SDS011;61000;48.120;11.548;2022-10-17T03:38:57;7.47;;;3.85;;
72864;SDS011;61000;48.120;11.548;2022-10-17T03:41:24;5.88;;;3.10;;
72864;SDS011;61000;48.120;11.548;2022-10-17T03:43:52;3.47;;;3.13;;
72864;SDS011;61000;48.120;11.548;2022-10-17T03:46:19;6.05;;;3.05;;
72864;SDS011;61000;48.120;11.548;2022-10-17T03:48:46;2.92;;;2.42;;
72864;SDS011;61000;48.120;11.548;2022-10-17T03:51:14;3.33;;;2.83;;
72864;SDS011;61000;48.120;11.548;2022-10-17T03:53:47;3.35;;;2.78;;
72864;SDS011;61000;48.120;11.548;2022-10-17T03:56:16;3.88;;;2.85;;
72864;SDS011;61000;48.120;11.548;2022-10-17T03:58:51;6.03;;;2.80;;
72864;SDS011;61000;48.120;11.548;2022-10-17T04:01:20;3.80;;;3.28;;
72864;SDS011;61000;48.120;11.548;2022-10-17T04:03:48;4.78;;;3.05;;
72864;SDS011;61000;48.120;11.548;2022-10-17T04:06:15;4.97;;;3.08;;
72864;SDS011;61000;48.120;11.548;2022-10-17T04:08:42;4.95;;;3.05;;
72864;SDS011;61000;48.120;11.548;2022-10-17T04:11:13;8.10;;;3.10;;
72864;SDS011;61000;48.120;11.548;2022-10-17T04:13:43;6.38;;;2.92;;
72864;SDS011;61000;48.120;11.548;2022-10-17T04:16:11;4.55;;;3.17;;
72864;SDS011;61000;48.120;11.548;2022-10-17T04:18:51;3.50;;;3.20;;
72864;SDS011;61000;48.120;11.548;2022-10-17T04:21:18;9.18;;;4.03;;
72864;SDS011;61000;48.120;11.548;2022-10-17T04:23:45;12.60;;;4.97;;
72864;SDS011;61000;48.120;11.548;2022-10-17T04:26:31;8.70;;;4.15;;
72864;SDS011;61000;48.120;11.548;2022-10-17T04:28:58;6.80;;;3.88;;
72864;SDS011;61000;48.120;11.548;2022-10-17T04:31:25;7.00;;;3.72;;
72864;SDS011;61000;48.120;11.548;2022-10-17T04:34:02;9.95;;;3.95;;
72864;SDS011;61000;48.120;11.548;2022-10-17T04:36:29;4.78;;;3.55;;
72864;SDS011;61000;48.120;11.548;2022-10-17T04:38:57;6.65;;;3.45;;
72864;SDS011;61000;48.120;11.548;2022-10-17T04:41:27;5.07;;;3.38;;
72864;SDS011;61000;48.120;11.548;2022-10-17T04:43:55;5.10;;;3.38;;
72864;SDS011;61000;48.120;11.548;2022-10-17T04:46:22;8.50;;;4.03;;
72864;SDS011;61000;48.120;11.548;2022-10-17T04:48:49;9.15;;;4.10;;
72864;SDS011;61000;48.120;11.548;2022-10-17T04:51:17;10.23;;;4.32;;
72864;SDS011;61000;48.120;11.548;2022-10-17T04:54:03;8.52;;;4.38;;
72864;SDS011;61000;48.120;11.548;2022-10-17T04:56:31;9.88;;;4.40;;
72864;SDS011;61000;48.120;11.548;2022-10-17T04:58:59;8.85;;;5.03;;
72864;SDS011;61000;48.120;11.548;2022-10-17T05:01:26;7.90;;;4.82;;
72864;SDS011;61000;48.120;11.548;2022-10-17T05:03:55;7.85;;;4.82;;
72864;SDS011;61000;48.120;11.548;2022-10-17T05:06:23;10.77;;;5.07;;
72864;SDS011;61000;48.120;11.548;2022-10-17T05:09:10;11.40;;;4.38;;
72864;SDS011;61000;48.120;11.548;2022-10-17T05:11:37;6.82;;;4.65;;
72864;SDS011;61000;48.120;11.548;2022-10-17T05:14:05;8.98;;;4.43;;
72864;SDS011;61000;48.120;11.548;2022-10-17T05:16:33;7.97;;;4.15;;
72864;SDS011;61000;48.120;11.548;2022-10-17T05:19:00;5.43;;;4.10;;
72864;SDS011;61000;48.120;11.548;2022-10-17T05:21:34;6.82;;;4.15;;
72864;SDS011;61000;48.120;11.548;2022-10-17T05:24:03;7.47;;;4.13;;
72864;SDS011;61000;48.120;11.548;2022-10-17T05:26:31;9.20;;;4.30;;
72864;SDS011;61000;48.120;11.548;2022-10-17T05:28:58;7.57;;;3.80;;
72864;SDS011;61000;48.120;11.548;2022-10-17T05:31:29;6.38;;;3.45;;
72864;SDS011;61000;48.120;11.548;2022-10-17T05:33:58;7.70;;;4.15;;
72864;SDS011;61000;48.120;11.548;2022-10-17T05:36:25;7.20;;;4.07;;
72864;SDS011;61000;48.120;11.548;2022-10-17T05:38:52;8.68;;;4.07;;
72864;SDS011;61000;48.120;11.548;2022-10-17T05:41:20;10.60;;;4.10;;
72864;SDS011;61000;48.120;11.548;2022-10-17T05:43:48;8.23;;;4.15;;
72864;SDS011;61000;48.120;11.548;2022-10-17T05:46:19;6.35;;;4.00;;
72864;SDS011;61000;48.120;11.548;2022-10-17T05:48:47;9.68;;;4.47;;
72864;SDS011;61000;48.120;11.548;2022-10-17T05:51:15;6.20;;;4.45;;
72864;SDS011;61000;48.120;11.548;2022-10-17T05:53:42;7.55;;;4.32;;
72864;SDS011;61000;48.120;11.548;2022-10-17T05:56:15;9.13;;;4.20;;
72864;SDS011;61000;48.120;11.548;2022-10-17T05:58:45;6.80;;;4.30;;
72864;SDS011;61000;48.120;11.548;2022-10-17T06:01:27;10.95;;;4.40;;
72864;SDS011;61000;48.120;11.548;2022-10-17T06:03:55;8.30;;;4.47;;
72864;SDS011;61000;48.120;11.548;2022-10-17T06:06:23;5.75;;;4.05;;
72864;SDS011;61000;48.120;11.548;2022-10-17T06:08:50;7.15;;;4.90;;
72864;SDS011;61000;48.120;11.548;2022-10-17T06:11:22;9.52;;;5.10;;
72864;SDS011;61000;48.120;11.548;2022-10-17T06:13:49;6.13;;;4.75;;
72864;SDS011;61000;48.120;11.548;2022-10-17T06:16:21;8.57;;;4.63;;
72864;SDS011;61000;48.120;11.548;2022-10-17T06:18:48;6.57;;;4.28;;
72864;SDS011;61000;48.120;11.548;2022-10-17T06:21:17;8.70;;;4.22;;
72864;SDS011;61000;48.120;11.548;2022-10-17T06:23:48;8.15;;;4.57;;
72864;SDS011;61000;48.120;11.548;2022-10-17T06:26:23;7.20;;;4.07;;
72864;SDS011;61000;48.120;11.548;2022-10-17T06:28:50;8.80;;;4.65;;
72864;SDS011;61000;48.120;11.548;2022-10-17T06:31:19;7.30;;;4.28;;
72864;SDS011;61000;48.120;11.548;2022-10-17T06:33:46;5.97;;;4.15;;
72864;SDS011;61000;48.120;11.548;2022-10-17T06:36:13;7.93;;;4.05;;
72864;SDS011;61000;48.120;11.548;2022-10-17T06:38:42;8.77;;;4.80;;
72864;SDS011;61000;48.120;11.548;2022-10-17T06:41:19;7.10;;;4.88;;
72864;SDS011;61000;48.120;11.548;2022-10-17T06:43:49;20.45;;;5.18;;
72864;SDS011;61000;48.120;11.548;2022-10-17T06:46:37;14.57;;;4.90;;
72864;SDS011;61000;48.120;11.548;2022-10-17T06:49:08;5.32;;;3.83;;
72864;SDS011;61000;48.120;11.548;2022-10-17T06:51:42;8.32;;;3.85;;
72864;SDS011;61000;48.120;11.548;2022-10-17T06:54:13;7.47;;;3.75;;
72864;SDS011;61000;48.120;11.548;2022-10-17T06:56:46;10.20;;;3.78;;
72864;SDS011;61000;48.120;11.548;2022-10-17T06:59:28;5.82;;;3.22;;
72864;SDS011;61000;48.120;11.548;2022-10-17T07:02:00;7.32;;;3.67;;
72864;SDS011;61000;48.120;11.548;2022-10-17T07:04:28;7.07;;;3.75;;
72864;SDS011;61000;48.120;11.548;2022-10-17T07:06:55;6.28;;;3.85;;
72864;SDS011;61000;48.120;11.548;2022-10-17T07:09:26;8.60;;;3.97;;
72864;SDS011;61000;48.120;11.548;2022-10-17T07:11:56;7.20;;;3.72;;
72864;SDS011;61000;48.120;11.548;2022-10-17T07:14:23;7.40;;;4.10;;
72864;SDS011;61000;48.120;11.548;2022-10-17T07:16:55;5.18;;;4.07;;
72864;SDS011;61000;48.120;11.548;2022-10-17T07:19:23;6.82;;;3.60;;
72864;SDS011;61000;48.120;11.548;2022-10-17T07:21:51;5.22;;;3.83;;
72864;SDS011;61000;48.120;11.548;2022-10-17T07:24:18;8.57;;;4.07;;
72864;SDS011;61000;48.120;11.548;2022-10-17T07:26:54;5.95;;;3.67;;
72864;SDS011;61000;48.120;11.548;2022-10-17T07:29:21;6.70;;;3.90;;
72864;SDS011;61000;48.120;11.548;2022-10-17T07:32:07;7.03;;;3.22;;
72864;SDS011;61000;48.120;11.548;2022-10-17T07:34:34;9.07;;;4.00;;
72864;SDS011;61000;48.120;11.548;2022-10-17T07:37:01;5.25;;;3.28;;
72864;SDS011;61000;48.120;11.548;2022-10-17T07:39:31;5.45;;;3.35;;
72864;SDS011;61000;48.120;11.548;2022-10-17T07:42:01;9.07;;;3.58;;
72864;SDS011;61000;48.120;11.548;2022-10-17T07:44:28;5.15;;;3.50;;
72864;SDS011;61000;48.120;11.548;2022-10-17T07:46:55;4.78;;;3.70;;
72864;SDS011;61000;48.120;11.548;2022-10-17T07:49:22;4.65;;;3.20;;
72864;SDS011;61000;48.120;11.548;2022-10-17T07:51:50;6.50;;;3.72;;
72864;SDS011;61000;48.120;11.548;2022-10-17T07:54:16;7.60;;;3.65;;
72864;SDS011;61000;48.120;11.548;2022-10-17T07:56:43;6.93;;;3.97;;
72864;SDS011;61000;48.120;11.548;2022-10-17T07:59:16;6.28;;;4.45;;
72864;SDS011;61000;48.120;11.548;2022-10-17T08:01:43;4.55;;;3.67;;
72864;SDS011;61000;48.120;11.548;2022-10-17T08:04:09;9.70;;;4.65;;
72864;SDS011;61000;48.120;11.548;2022-10-17T08:06:36;6.97;;;4.25;;
72864;SDS011;61000;48.120;11.548;2022-10-17T08:09:03;7.95;;;3.72;;
72864;SDS011;61000;48.120;11.548;2022-10-17T08:11:30;6.57;;;4.20;;
72864;SDS011;61000;48.120;11.548;2022-10-17T08:13:57;7.32;;;3.70;;
72864;SDS011;61000;48.120;11.548;2022-10-17T08:16:25;4.93;;;3.83;;
72864;SDS011;61000;48.120;11.548;2022-10-17T08:18:52;8.27;;;4.40;;
72864;SDS011;61000;48.120;11.548;2022-10-17T08:21:19;6.78;;;4.00;;
72864;SDS011;61000;48.120;11.548;2022-10-17T08:23:46;10.20;;;3.90;;
72864;SDS011;61000;48.120;11.548;2022-10-17T08:26:13;7.78;;;3.85;;
72864;SDS011;61000;48.120;11.548;2022-10-17T08:28:41;6.57;;;4.00;;
72864;SDS011;61000;48.120;11.548;2022-10-17T08:31:08;7.47;;;3.53;;
72864;SDS011;61000;48.120;11.548;2022-10-17T08:33:38;4.68;;;3.35;;
72864;SDS011;61000;48.120;11.548;2022-10-17T08:36:06;5.90;;;3.75;;
72864;SDS011;61000;48.120;11.548;2022-10-17T08:38:38;7.30;;;3.20;;
72864;SDS011;61000;48.120;11.548;2022-10-17T08:41:12;5.00;;;2.70;;
72864;SDS011;61000;48.120;11.548;2022-10-17T08:43:48;3.58;;;3.05;;
72864;SDS011;61000;48.120;11.548;2022-10-17T08:46:27;3.88;;;2.80;;
72864;SDS011;61000;48.120;11.548;2022-10-17T08:48:57;2.47;;;2.20;;
72864;SDS011;61000;48.120;11.548;2022-10-17T08:51:28;5.28;;;2.80;;
72864;SDS011;61000;48.120;11.548;2022-10-17T08:54:00;3.67;;;2.05;;
72864;SDS011;61000;48.120;11.548;2022-10-17T08:56:32;2.88;;;1.95;;
72864;SDS011;61000;48.120;11.548;2022-10-17T08:59:05;4.45;;;2.20;;
72864;SDS011;61000;48.120;11.548;2022-10-17T09:01:38;2.75;;;1.77;;
72864;SDS011;61000;48.120;11.548;2022-10-17T09:07:09;2.28;;;1.80;;
72864;SDS011;61000;48.120;11.548;2022-10-17T09:09:39;3.15;;;1.75;;
72864;SDS011;61000;48.120;11.548;2022-10-17T09:12:14;5.10;;;2.03;;
72864;SDS011;61000;48.120;11.548;2022-10-17T09:14:57;2.75;;;1.83;;
72864;SDS011;61000;48.120;11.548;2022-10-17T09:17:46;3.53;;;1.90;;
72864;SDS011;61000;48.120;11.548;2022-10-17T09:20:20;1.95;;;1.52;;
72864;SDS011;61000;48.120;11.548;2022-10-17T09:22:51;3.33;;;2.00;;
72864;SDS011;61000;48.120;11.548;2022-10-17T09:25:22;1.80;;;1.67;;
72864;SDS011;61000;48.120;11.548;2022-10-17T09:27:50;2.33;;;1.95;;
72864;SDS011;61000;48.120;11.548;2022-10-17T09:30:24;4.93;;;2.00;;
72864;SDS011;61000;48.120;11.548;2022-10-17T09:32:58;4.43;;;1.77;;
72864;SDS011;61000;48.120;11.548;2022-10-17T09:35:27;3.20;;;1.73;;
72864;SDS011;61000;48.120;11.548;2022-10-17T09:37:54;2.95;;;1.40;;
72864;SDS011;61000;48.120;11.548;2022-10-17T09:40:23;6.00;;;3.00;;
72864;SDS011;61000;48.120;11.548;2022-10-17T09:42:52;3.47;;;1.90;;
72864;SDS011;61000;48.120;11.548;2022-10-17T09:45:20;6.03;;;2.13;;
72864;SDS011;61000;48.120;11.548;2022-10-17T09:47:54;2.85;;;1.77;;
72864;SDS011;61000;48.120;11.548;2022-10-17T09:50:25;2.10;;;1.50;;
72864;SDS011;61000;48.120;11.548;2022-10-17T09:52:55;3.03;;;1.50;;
72864;SDS011;61000;48.120;11.548;2022-10-17T09:55:27;2.45;;;1.60;;
72864;SDS011;61000;48.120;11.548;2022-10-17T09:57:59;4.00;;;1.80;;
72864;SDS011;61000;48.120;11.548;2022-10-17T10:00:28;2.55;;;1.83;;
72864;SDS011;61000;48.120;11.548;2022-10-17T10:03:10;3.22;;;2.00;;
72864;SDS011;61000;48.120;11.548;2022-10-17T10:05:42;2.30;;;2.05;;
72864;SDS011;61000;48.120;11.548;2022-10-17T10:08:25;6.70;;;2.53;;
72864;SDS011;61000;48.120;11.548;2022-10-17T10:10:58;3.38;;;2.13;;
72864;SDS011;61000;48.120;11.548;2022-10-17T10:13:29;3.22;;;2.33;;
72864;SDS011;61000;48.120;11.548;2022-10-17T10:16:12;2.50;;;2.00;;
72864;SDS011;61000;48.120;11.548;2022-10-17T10:18:41;3.03;;;2.15;;
72864;SDS011;61000;48.120;11.548;2022-10-17T10:21:12;3.90;;;2.10;;
72864;SDS011;61000;48.120;11.548;2022-10-17T10:23:40;4.22;;;1.98;;
72864;SDS011;61000;48.120;11.548;2022-10-17T10:26:17;5.15;;;2.30;;
72864;SDS011;61000;48.120;11.548;2022-10-17T10:28:50;2.03;;;1.80;;
72864;SDS011;61000;48.120;11.548;2022-10-17T10:31:24;2.85;;;2.15;;
72864;SDS011;61000;48.120;11.548;2022-10-17T10:33:53;2.50;;;2.30;;
72864;SDS011;61000;48.120;11.548;2022-10-17T10:36:23;7.88;;;3.42;;
72864;SDS011;61000;48.120;11.548;2022-10-17T10:38:51;2.38;;;2.17;;
72864;SDS011;61000;48.120;11.548;2022-10-17T10:41:20;2.50;;;2.17;;
72864;SDS011;61000;48.120;11.548;2022-10-17T10:43:47;2.95;;;2.03;;
72864;SDS011;61000;48.120;11.548;2022-10-17T10:46:17;3.35;;;2.10;;
72864;SDS011;61000;48.120;11.548;2022-10-17T10:48:49;7.15;;;2.33;;
72864;SDS011;61000;48.120;11.548;2022-10-17T10:51:19;2.25;;;2.05;;
72864;SDS011;61000;48.120;11.548;2022-10-17T10:53:54;2.10;;;2.00;;
72864;SDS011;61000;48.120;11.548;2022-10-17T10:56:27;2.88;;;2.08;;
72864;SDS011;61000;48.120;11.548;2022-10-17T10:58:57;4.75;;;2.38;;
72864;SDS011;61000;48.120;11.548;2022-10-17T11:01:30;4.70;;;2.40;;
72864;SDS011;61000;48.120;11.548;2022-10-17T11:04:11;1.77;;;1.65;;
72864;SDS011;61000;48.120;11.548;2022-10-17T11:06:46;3.35;;;2.33;;
72864;SDS011;61000;48.120;11.548;2022-10-17T11:09:22;3.25;;;2.20;;
72864;SDS011;61000;48.120;11.548;2022-10-17T11:11:56;3.80;;;2.13;;
72864;SDS011;61000;48.120;11.548;2022-10-17T11:14:33;2.30;;;1.90;;
72864;SDS011;61000;48.120;11.548;2022-10-17T11:17:07;5.65;;;2.80;;
72864;SDS011;61000;48.120;11.548;2022-10-17T11:19:42;2.25;;;1.90;;
72864;SDS011;61000;48.120;11.548;2022-10-17T11:22:15;2.50;;;2.20;;
72864;SDS011;61000;48.120;11.548;2022-10-17T11:24:49;3.10;;;2.30;;
72864;SDS011;61000;48.120;11.548;2022-10-17T11:27:21;4.38;;;1.90;;
72864;SDS011;61000;48.120;11.548;2022-10-17T11:29:48;4.47;;;2.13;;
72864;SDS011;61000;48.120;11.548;2022-10-17T11:32:16;1.95;;;1.85;;
72864;SDS011;61000;48.120;11.548;2022-10-17T11:34:47;4.70;;;2.13;;
72864;SDS011;61000;48.120;11.548;2022-10-17T11:37:19;3.90;;;2.03;;
72864;SDS011;61000;48.120;11.548;2022-10-17T11:39:50;1.88;;;1.75;;
72864;SDS011;61000;48.120;11.548;2022-10-17T11:42:20;4.00;;;1.85;;
72864;SDS011;61000;48.120;11.548;2022-10-17T11:44:51;1.90;;;1.80;;
72864;SDS011;61000;48.120;11.548;2022-10-17T11:47:27;2.97;;;1.95;;
72864;SDS011;61000;48.120;11.548;2022-10-17T11:50:01;4.57;;;2.13;;
72864;SDS011;61000;48.120;11.548;2022-10-17T11:52:35;2.20;;;2.00;;
72864;SDS011;61000;48.120;11.548;2022-10-17T11:55:08;2.10;;;1.73;;
72864;SDS011;61000;48.120;11.548;2022-10-17T12:00:30;2.22;;;2.03;;
72864;SDS011;61000;48.120;11.548;2022-10-17T12:03:16;4.25;;;1.70;;
72864;SDS011;61000;48.120;11.548;2022-10-17T12:05:54;2.38;;;2.03;;
72864;SDS011;61000;48.120;11.548;2022-10-17T12:08:28;2.67;;;1.92;;
72864;SDS011;61000;48.120;11.548;2022-10-17T12:11:02;3.00;;;1.60;;
72864;SDS011;61000;48.120;11.548;2022-10-17T12:13:49;2.20;;;1.90;;
72864;SDS011;61000;48.120;11.548;2022-10-17T12:19:30;3.70;;;2.20;;
72864;SDS011;61000;48.120;11.548;2022-10-17T12:22:01;1.90;;;1.80;;
72864;SDS011;61000;48.120;11.548;2022-10-17T12:24:36;2.47;;;2.03;;
72864;SDS011;61000;48.120;11.548;2022-10-17T12:29:58;2.05;;;1.85;;
72864;SDS011;61000;48.120;11.548;2022-10-17T12:32:26;1.40;;;1.30;;
72864;SDS011;61000;48.120;11.548;2022-10-17T12:34:55;2.33;;;1.60;;
72864;SDS011;61000;48.120;11.548;2022-10-17T12:46:11;3.25;;;1.75;;
72864;SDS011;61000;48.120;11.548;2022-10-17T12:49:02;6.63;;;1.95;;
72864;SDS011;61000;48.120;11.548;2022-10-17T12:52:03;3.40;;;1.75;;
72864;SDS011;61000;48.120;11.548;2022-10-17T12:54:46;2.80;;;1.75;;
72864;SDS011;61000;48.120;11.548;2022-10-17T12:57:20;2.35;;;2.00;;
72864;SDS011;61000;48.120;11.548;2022-10-17T12:59:52;2.20;;;1.55;;
72864;SDS011;61000;48.120;11.548;2022-10-17T13:02:19;1.77;;;1.50;;
72864;SDS011;61000;48.120;11.548;2022-10-17T13:04:49;2.08;;;1.58;;
72864;SDS011;61000;48.120;11.548;2022-10-17T13:07:20;2.17;;;1.33;;
72864;SDS011;61000;48.120;11.548;2022-10-17T13:09:48;2.92;;;1.55;;
72864;SDS011;61000;48.120;11.548;2022-10-17T13:12:18;1.20;;;1.10;;
72864;SDS011;61000;48.120;11.548;2022-10-17T13:14:51;2.75;;;1.23;;
72864;SDS011;61000;48.120;11.548;2022-10-17T13:17:21;1.40;;;1.30;;
72864;SDS011;61000;48.120;11.548;2022-10-17T13:19:49;2.33;;;1.52;;
72864;SDS011;61000;48.120;11.548;2022-10-17T13:22:18;2.88;;;1.42;;
72864;SDS011;61000;48.120;11.548;2022-10-17T13:24:47;1.85;;;1.50;;
72864;SDS011;61000;48.120;11.548;2022-10-17T13:27:23;2.00;;;1.80;;
72864;SDS011;61000;48.120;11.548;2022-10-17T13:29:51;2.55;;;1.83;;
72864;SDS011;61000;48.120;11.548;2022-10-17T13:32:20;5.18;;;2.03;;
72864;SDS011;61000;48.120;11.548;2022-10-17T13:37:33;7.78;;;3.67;;
72864;SDS011;61000;48.120;11.548;2022-10-17T13:40:00;6.00;;;2.10;;
72864;SDS011;61000;48.120;11.548;2022-10-17T13:42:29;3.75;;;2.03;;
72864;SDS011;61000;48.120;11.548;2022-10-17T13:45:09;3.90;;;1.73;;
72864;SDS011;61000;48.120;11.548;2022-10-17T13:47:42;7.38;;;1.80;;
72864;SDS011;61000;48.120;11.548;2022-10-17T13:50:12;3.72;;;3.28;;
72864;SDS011;61000;48.120;11.548;2022-10-17T13:53:13;3.00;;;1.98;;
72864;SDS011;61000;48.120;11.548;2022-10-17T13:55:55;5.63;;;1.80;;
72864;SDS011;61000;48.120;11.548;2022-10-17T13:58:28;1.80;;;1.70;;
72864;SDS011;61000;48.120;11.548;2022-10-17T14:00:56;2.58;;;1.73;;
72864;SDS011;61000;48.120;11.548;2022-10-17T14:03:23;2.95;;;1.50;;
72864;SDS011;61000;48.120;11.548;2022-10-17T14:05:57;3.10;;;1.65;;
72864;SDS011;61000;48.120;11.548;2022-10-17T14:08:30;2.40;;;1.83;;
72864;SDS011;61000;48.120;11.548;2022-10-17T14:10:58;4.38;;;1.80;;
72864;SDS011;61000;48.120;11.548;2022-10-17T14:13:28;2.50;;;1.92;;
72864;SDS011;61000;48.120;11.548;2022-10-17T14:15:58;3.63;;;1.70;;
72864;SDS011;61000;48.120;11.548;2022-10-17T14:18:27;2.92;;;1.50;;
72864;SDS011;61000;48.120;11.548;2022-10-17T14:20:56;4.57;;;1.70;;
72864;SDS011;61000;48.120;11.548;2022-10-17T14:23:31;2.35;;;1.60;;
72864;SDS011;61000;48.120;11.548;2022-10-17T14:26:03;1.90;;;1.80;;
72864;SDS011;61000;48.120;11.548;2022-10-17T14:28:32;3.75;;;1.65;;
72864;SDS011;61000;48.120;11.548;2022-10-17T14:31:17;1.52;;;1.42;;
72864;SDS011;61000;48.120;11.548;2022-10-17T14:33:49;1.90;;;1.67;;
72864;SDS011;61000;48.120;11.548;2022-10-17T14:36:17;2.10;;;1.90;;
72864;SDS011;61000;48.120;11.548;2022-10-17T14:38:45;2.63;;;2.20;;
72864;SDS011;61000;48.120;11.548;2022-10-17T14:41:21;2.38;;;1.95;;
72864;SDS011;61000;48.120;11.548;2022-10-17T14:43:55;2.10;;;1.90;;
72864;SDS011;61000;48.120;11.548;2022-10-17T14:46:23;3.30;;;1.88;;
72864;SDS011;61000;48.120;11.548;2022-10-17T14:48:51;3.97;;;1.85;;
72864;SDS011;61000;48.120;11.548;2022-10-17T14:51:21;2.30;;;1.80;;
72864;SDS011;61000;48.120;11.548;2022-10-17T14:54:04;4.05;;;1.85;;
72864;SDS011;61000;48.120;11.548;2022-10-17T14:56:47;1.95;;;1.65;;
72864;SDS011;61000;48.120;11.548;2022-10-17T14:59:17;2.15;;;1.95;;
72864;SDS011;61000;48.120;11.548;2022-10-17T15:01:48;2.90;;;2.05;;
72864;SDS011;61000;48.120;11.548;2022-10-17T15:04:15;7.15;;;1.92;;
72864;SDS011;61000;48.120;11.548;2022-10-17T15:06:42;1.85;;;1.67;;
72864;SDS011;61000;48.120;11.548;2022-10-17T15:09:18;2.83;;;2.00;;
72864;SDS011;61000;48.120;11.548;2022-10-17T15:11:46;3.53;;;2.20;;
72864;SDS011;61000;48.120;11.548;2022-10-17T15:14:13;3.65;;;1.90;;
72864;SDS011;61000;48.120;11.548;2022-10-17T15:16:41;3.58;;;1.80;;
72864;SDS011;61000;48.120;11.548;2022-10-17T15:19:08;3.72;;;1.80;;
72864;SDS011;61000;48.120;11.548;2022-10-17T15:21:35;2.65;;;1.98;;
72864;SDS011;61000;48.120;11.548;2022-10-17T15:24:02;3.70;;;2.15;;